sensor_id;sensor_type;location;lat;lon;timestamp;P1;durP1;ratioP1;P2;durP2;ratioP2
78858;SDS011;68210;52.032;4.634;2023-08-20T00:00:27;5.55;;;2.05;;
78858;SDS011;68210;52.032;4.634;2023-08-20T00:02:28;5.93;;;1.30;;
78858;SDS011;68210;52.032;4.634;2023-08-20T00:04:31;6.25;;;1.42;;
78858;SDS011;68210;52.032;4.634;2023-08-20T00:06:35;6.38;;;1.35;;
78858;SDS011;68210;52.032;4.634;2023-08-20T00:08:35;6.40;;;2.17;;
78858;SDS011;68210;52.032;4.634;2023-08-20T00:10:36;8.48;;;1.55;;
78858;SDS011;68210;52.032;4.634;2023-08-20T00:12:36;4.20;;;1.50;;
78858;SDS011;68210;52.032;4.634;2023-08-20T00:14:53;10.88;;;1.73;;
78858;SDS011;68210;52.032;4.634;2023-08-20T00:16:58;6.78;;;1.83;;
78858;SDS011;68210;52.032;4.634;2023-08-20T00:18:59;6.80;;;2.00;;
78858;SDS011;68210;52.032;4.634;2023-08-20T00:20:59;5.50;;;1.95;;
78858;SDS011;68210;52.032;4.634;2023-08-20T00:23:00;9.20;;;2.28;;
78858;SDS011;68210;52.032;4.634;2023-08-20T00:25:01;8.70;;;1.67;;
78858;SDS011;68210;52.032;4.634;2023-08-20T00:27:04;7.78;;;1.85;;
78858;SDS011;68210;52.032;4.634;2023-08-20T00:29:04;7.82;;;1.83;;
78858;SDS011;68210;52.032;4.634;2023-08-20T00:31:04;6.75;;;1.67;;
78858;SDS011;68210;52.032;4.634;2023-08-20T00:33:05;8.25;;;1.70;;
78858;SDS011;68210;52.032;4.634;2023-08-20T00:35:05;5.90;;;1.35;;
78858;SDS011;68210;52.032;4.634;2023-08-20T00:37:07;5.22;;;1.33;;
78858;SDS011;68210;52.032;4.634;2023-08-20T00:39:08;7.22;;;1.70;;
78858;SDS011;68210;52.032;4.634;2023-08-20T00:41:08;8.73;;;1.42;;
78858;SDS011;68210;52.032;4.634;2023-08-20T00:43:09;8.80;;;2.58;;
78858;SDS011;68210;52.032;4.634;2023-08-20T00:45:09;8.85;;;1.73;;
78858;SDS011;68210;52.032;4.634;2023-08-20T00:47:13;4.63;;;1.75;;
78858;SDS011;68210;52.032;4.634;2023-08-20T00:49:13;8.15;;;2.00;;
78858;SDS011;68210;52.032;4.634;2023-08-20T00:51:14;5.70;;;1.45;;
78858;SDS011;68210;52.032;4.634;2023-08-20T00:53:14;6.95;;;1.88;;
78858;SDS011;68210;52.032;4.634;2023-08-20T00:55:15;7.47;;;1.75;;
78858;SDS011;68210;52.032;4.634;2023-08-20T00:57:16;8.77;;;2.03;;
78858;SDS011;68210;52.032;4.634;2023-08-20T00:59:18;10.18;;;2.00;;
78858;SDS011;68210;52.032;4.634;2023-08-20T01:01:18;6.93;;;1.98;;
78858;SDS011;68210;52.032;4.634;2023-08-20T01:03:19;8.48;;;2.17;;
78858;SDS011;68210;52.032;4.634;2023-08-20T01:05:19;6.97;;;2.10;;
78858;SDS011;68210;52.032;4.634;2023-08-20T01:12:13;6.40;;;2.13;;
78858;SDS011;68210;52.032;4.634;2023-08-20T01:14:17;5.07;;;1.67;;
78858;SDS011;68210;52.032;4.634;2023-08-20T01:16:17;7.13;;;1.40;;
78858;SDS011;68210;52.032;4.634;2023-08-20T01:18:18;5.43;;;1.30;;
78858;SDS011;68210;52.032;4.634;2023-08-20T01:20:18;5.10;;;1.60;;
78858;SDS011;68210;52.032;4.634;2023-08-20T01:25:08;3.63;;;1.33;;
78858;SDS011;68210;52.032;4.634;2023-08-20T01:29:59;7.47;;;1.55;;
78858;SDS011;68210;52.032;4.634;2023-08-20T01:32:00;8.30;;;1.73;;
78858;SDS011;68210;52.032;4.634;2023-08-20T01:34:02;6.90;;;1.63;;
78858;SDS011;68210;52.032;4.634;2023-08-20T01:36:03;7.80;;;2.05;;
78858;SDS011;68210;52.032;4.634;2023-08-20T01:38:11;8.27;;;1.92;;
78858;SDS011;68210;52.032;4.634;2023-08-20T01:40:11;9.40;;;1.73;;
78858;SDS011;68210;52.032;4.634;2023-08-20T01:42:12;8.23;;;1.98;;
78858;SDS011;68210;52.032;4.634;2023-08-20T01:44:12;8.07;;;1.80;;
78858;SDS011;68210;52.032;4.634;2023-08-20T01:46:14;7.05;;;1.58;;
78858;SDS011;68210;52.032;4.634;2023-08-20T01:48:14;10.43;;;1.80;;
78858;SDS011;68210;52.032;4.634;2023-08-20T01:50:14;8.07;;;2.40;;
78858;SDS011;68210;52.032;4.634;2023-08-20T01:52:15;7.13;;;2.22;;
78858;SDS011;68210;52.032;4.634;2023-08-20T01:54:15;6.90;;;2.10;;
78858;SDS011;68210;52.032;4.634;2023-08-20T01:56:17;9.85;;;2.58;;
78858;SDS011;68210;52.032;4.634;2023-08-20T01:58:17;9.25;;;2.22;;
78858;SDS011;68210;52.032;4.634;2023-08-20T02:00:17;7.15;;;2.10;;
78858;SDS011;68210;52.032;4.634;2023-08-20T02:02:18;7.53;;;2.70;;
78858;SDS011;68210;52.032;4.634;2023-08-20T02:04:18;10.10;;;2.58;;
78858;SDS011;68210;52.032;4.634;2023-08-20T02:06:18;11.75;;;2.35;;
78858;SDS011;68210;52.032;4.634;2023-08-20T02:08:19;10.43;;;3.00;;
78858;SDS011;68210;52.032;4.634;2023-08-20T02:10:20;7.82;;;2.72;;
78858;SDS011;68210;52.032;4.634;2023-08-20T02:12:21;9.15;;;2.63;;
78858;SDS011;68210;52.032;4.634;2023-08-20T02:14:21;6.32;;;2.30;;
78858;SDS011;68210;52.032;4.634;2023-08-20T02:16:22;10.07;;;2.42;;
78858;SDS011;68210;52.032;4.634;2023-08-20T02:18:22;8.05;;;2.05;;
78858;SDS011;68210;52.032;4.634;2023-08-20T02:20:22;8.70;;;2.10;;
78858;SDS011;68210;52.032;4.634;2023-08-20T02:22:23;8.75;;;2.10;;
78858;SDS011;68210;52.032;4.634;2023-08-20T02:24:23;7.43;;;2.25;;
78858;SDS011;68210;52.032;4.634;2023-08-20T02:26:23;9.70;;;2.15;;
78858;SDS011;68210;52.032;4.634;2023-08-20T02:28:24;7.20;;;1.65;;
78858;SDS011;68210;52.032;4.634;2023-08-20T02:30:25;6.95;;;2.10;;
78858;SDS011;68210;52.032;4.634;2023-08-20T02:32:25;5.82;;;1.90;;
78858;SDS011;68210;52.032;4.634;2023-08-20T02:34:25;9.10;;;2.55;;
78858;SDS011;68210;52.032;4.634;2023-08-20T02:36:26;7.07;;;2.38;;
78858;SDS011;68210;52.032;4.634;2023-08-20T02:38:26;10.43;;;2.53;;
78858;SDS011;68210;52.032;4.634;2023-08-20T02:40:26;6.63;;;2.50;;
78858;SDS011;68210;52.032;4.634;2023-08-20T02:42:27;8.38;;;1.95;;
78858;SDS011;68210;52.032;4.634;2023-08-20T02:44:27;6.57;;;2.70;;
78858;SDS011;68210;52.032;4.634;2023-08-20T02:46:27;6.88;;;2.30;;
78858;SDS011;68210;52.032;4.634;2023-08-20T02:48:28;7.15;;;2.60;;
78858;SDS011;68210;52.032;4.634;2023-08-20T02:50:29;7.90;;;2.35;;
78858;SDS011;68210;52.032;4.634;2023-08-20T02:52:30;9.50;;;2.13;;
78858;SDS011;68210;52.032;4.634;2023-08-20T02:54:30;7.93;;;2.55;;
78858;SDS011;68210;52.032;4.634;2023-08-20T02:56:32;7.70;;;2.00;;
78858;SDS011;68210;52.032;4.634;2023-08-20T02:58:32;3.08;;;2.00;;
78858;SDS011;68210;52.032;4.634;2023-08-20T03:00:33;7.47;;;2.33;;
78858;SDS011;68210;52.032;4.634;2023-08-20T03:02:33;8.50;;;2.00;;
78858;SDS011;68210;52.032;4.634;2023-08-20T03:04:34;5.15;;;1.48;;
78858;SDS011;68210;52.032;4.634;2023-08-20T03:06:35;5.35;;;1.60;;
78858;SDS011;68210;52.032;4.634;2023-08-20T03:08:35;6.72;;;1.85;;
78858;SDS011;68210;52.032;4.634;2023-08-20T03:10:36;4.63;;;1.63;;
78858;SDS011;68210;52.032;4.634;2023-08-20T03:12:36;4.68;;;1.50;;
78858;SDS011;68210;52.032;4.634;2023-08-20T03:14:37;6.47;;;1.70;;
78858;SDS011;68210;52.032;4.634;2023-08-20T03:16:37;7.20;;;1.98;;
78858;SDS011;68210;52.032;4.634;2023-08-20T03:18:38;7.72;;;1.55;;
78858;SDS011;68210;52.032;4.634;2023-08-20T03:20:38;9.65;;;2.55;;
78858;SDS011;68210;52.032;4.634;2023-08-20T03:22:38;5.28;;;1.92;;
78858;SDS011;68210;52.032;4.634;2023-08-20T03:24:39;9.10;;;1.80;;
78858;SDS011;68210;52.032;4.634;2023-08-20T03:26:39;4.97;;;1.88;;
78858;SDS011;68210;52.032;4.634;2023-08-20T03:28:39;8.27;;;1.70;;
78858;SDS011;68210;52.032;4.634;2023-08-20T03:30:40;4.30;;;1.60;;
78858;SDS011;68210;52.032;4.634;2023-08-20T03:32:40;4.55;;;1.60;;
78858;SDS011;68210;52.032;4.634;2023-08-20T03:34:41;5.68;;;1.58;;
78858;SDS011;68210;52.032;4.634;2023-08-20T03:36:41;8.05;;;1.90;;
78858;SDS011;68210;52.032;4.634;2023-08-20T03:38:42;6.15;;;1.73;;
78858;SDS011;68210;52.032;4.634;2023-08-20T03:40:42;4.90;;;1.60;;
78858;SDS011;68210;52.032;4.634;2023-08-20T03:42:42;7.10;;;2.53;;
78858;SDS011;68210;52.032;4.634;2023-08-20T03:44:43;6.57;;;1.58;;
78858;SDS011;68210;52.032;4.634;2023-08-20T03:46:43;6.53;;;1.83;;
78858;SDS011;68210;52.032;4.634;2023-08-20T03:48:44;8.82;;;2.13;;
78858;SDS011;68210;52.032;4.634;2023-08-20T03:50:44;6.25;;;1.48;;
78858;SDS011;68210;52.032;4.634;2023-08-20T03:52:44;7.45;;;1.65;;
78858;SDS011;68210;52.032;4.634;2023-08-20T03:54:45;7.22;;;1.90;;
78858;SDS011;68210;52.032;4.634;2023-08-20T03:56:46;6.45;;;1.58;;
78858;SDS011;68210;52.032;4.634;2023-08-20T03:58:46;4.30;;;1.23;;
78858;SDS011;68210;52.032;4.634;2023-08-20T04:00:46;4.63;;;1.40;;
78858;SDS011;68210;52.032;4.634;2023-08-20T04:02:47;5.60;;;1.48;;
78858;SDS011;68210;52.032;4.634;2023-08-20T04:04:47;7.65;;;2.38;;
78858;SDS011;68210;52.032;4.634;2023-08-20T04:06:48;5.05;;;1.60;;
78858;SDS011;68210;52.032;4.634;2023-08-20T04:08:48;4.32;;;1.90;;
78858;SDS011;68210;52.032;4.634;2023-08-20T04:10:49;6.80;;;1.67;;
78858;SDS011;68210;52.032;4.634;2023-08-20T04:12:49;5.72;;;1.60;;
78858;SDS011;68210;52.032;4.634;2023-08-20T04:14:49;4.88;;;1.95;;
78858;SDS011;68210;52.032;4.634;2023-08-20T04:16:50;4.53;;;1.45;;
78858;SDS011;68210;52.032;4.634;2023-08-20T04:18:50;9.75;;;2.22;;
78858;SDS011;68210;52.032;4.634;2023-08-20T04:20:51;6.85;;;1.92;;
78858;SDS011;68210;52.032;4.634;2023-08-20T04:22:52;4.72;;;1.67;;
78858;SDS011;68210;52.032;4.634;2023-08-20T04:24:52;5.65;;;1.60;;
78858;SDS011;68210;52.032;4.634;2023-08-20T04:26:53;6.10;;;1.70;;
78858;SDS011;68210;52.032;4.634;2023-08-20T04:28:53;4.18;;;1.30;;
78858;SDS011;68210;52.032;4.634;2023-08-20T04:30:53;3.30;;;1.50;;
78858;SDS011;68210;52.032;4.634;2023-08-20T04:32:54;5.30;;;1.60;;
78858;SDS011;68210;52.032;4.634;2023-08-20T04:34:54;6.72;;;1.45;;
78858;SDS011;68210;52.032;4.634;2023-08-20T04:36:55;5.15;;;1.50;;
78858;SDS011;68210;52.032;4.634;2023-08-20T04:38:55;4.85;;;1.80;;
78858;SDS011;68210;52.032;4.634;2023-08-20T04:40:55;4.47;;;1.88;;
78858;SDS011;68210;52.032;4.634;2023-08-20T04:42:56;4.60;;;1.70;;
78858;SDS011;68210;52.032;4.634;2023-08-20T04:44:56;5.45;;;1.83;;
78858;SDS011;68210;52.032;4.634;2023-08-20T04:46:57;4.47;;;1.60;;
78858;SDS011;68210;52.032;4.634;2023-08-20T04:48:57;5.18;;;1.13;;
78858;SDS011;68210;52.032;4.634;2023-08-20T04:50:58;3.00;;;1.67;;
78858;SDS011;68210;52.032;4.634;2023-08-20T04:53:00;4.05;;;1.42;;
78858;SDS011;68210;52.032;4.634;2023-08-20T04:55:01;4.57;;;1.33;;
78858;SDS011;68210;52.032;4.634;2023-08-20T04:57:02;5.43;;;1.83;;
78858;SDS011;68210;52.032;4.634;2023-08-20T04:59:02;3.55;;;1.40;;
78858;SDS011;68210;52.032;4.634;2023-08-20T05:01:03;4.57;;;1.58;;
78858;SDS011;68210;52.032;4.634;2023-08-20T05:03:03;5.93;;;1.60;;
78858;SDS011;68210;52.032;4.634;2023-08-20T05:05:04;5.70;;;1.52;;
78858;SDS011;68210;52.032;4.634;2023-08-20T05:07:04;5.78;;;1.50;;
78858;SDS011;68210;52.032;4.634;2023-08-20T05:09:05;5.60;;;1.70;;
78858;SDS011;68210;52.032;4.634;2023-08-20T05:11:05;6.20;;;1.92;;
78858;SDS011;68210;52.032;4.634;2023-08-20T05:13:05;3.53;;;1.65;;
78858;SDS011;68210;52.032;4.634;2023-08-20T05:15:06;3.45;;;1.60;;
78858;SDS011;68210;52.032;4.634;2023-08-20T05:17:07;2.90;;;1.20;;
78858;SDS011;68210;52.032;4.634;2023-08-20T05:19:07;2.70;;;1.40;;
78858;SDS011;68210;52.032;4.634;2023-08-20T05:21:07;6.82;;;2.10;;
78858;SDS011;68210;52.032;4.634;2023-08-20T05:23:08;8.93;;;2.28;;
78858;SDS011;68210;52.032;4.634;2023-08-20T05:25:08;3.70;;;1.83;;
78858;SDS011;68210;52.032;4.634;2023-08-20T05:27:11;5.78;;;1.63;;
78858;SDS011;68210;52.032;4.634;2023-08-20T05:29:14;4.90;;;1.70;;
78858;SDS011;68210;52.032;4.634;2023-08-20T05:31:14;5.57;;;1.40;;
78858;SDS011;68210;52.032;4.634;2023-08-20T05:33:15;4.45;;;1.55;;
78858;SDS011;68210;52.032;4.634;2023-08-20T05:35:15;6.63;;;1.80;;
78858;SDS011;68210;52.032;4.634;2023-08-20T05:37:15;5.22;;;1.77;;
78858;SDS011;68210;52.032;4.634;2023-08-20T05:39:16;4.65;;;1.60;;
78858;SDS011;68210;52.032;4.634;2023-08-20T05:41:17;8.02;;;2.03;;
78858;SDS011;68210;52.032;4.634;2023-08-20T05:43:17;6.47;;;1.52;;
78858;SDS011;68210;52.032;4.634;2023-08-20T05:45:18;6.32;;;1.90;;
78858;SDS011;68210;52.032;4.634;2023-08-20T05:47:18;10.18;;;2.00;;
78858;SDS011;68210;52.032;4.634;2023-08-20T05:49:19;7.32;;;1.73;;
78858;SDS011;68210;52.032;4.634;2023-08-20T05:51:19;7.05;;;2.30;;
78858;SDS011;68210;52.032;4.634;2023-08-20T05:53:19;4.40;;;1.80;;
78858;SDS011;68210;52.032;4.634;2023-08-20T05:55:22;6.97;;;1.88;;
78858;SDS011;68210;52.032;4.634;2023-08-20T05:57:22;5.63;;;1.92;;
78858;SDS011;68210;52.032;4.634;2023-08-20T05:59:22;4.75;;;1.73;;
78858;SDS011;68210;52.032;4.634;2023-08-20T06:01:23;4.80;;;1.85;;
78858;SDS011;68210;52.032;4.634;2023-08-20T06:03:23;5.90;;;2.38;;
78858;SDS011;68210;52.032;4.634;2023-08-20T06:05:23;7.85;;;2.00;;
78858;SDS011;68210;52.032;4.634;2023-08-20T06:07:24;6.88;;;2.13;;
78858;SDS011;68210;52.032;4.634;2023-08-20T06:09:24;5.32;;;1.75;;
78858;SDS011;68210;52.032;4.634;2023-08-20T06:11:24;6.03;;;1.58;;
78858;SDS011;68210;52.032;4.634;2023-08-20T06:13:25;6.25;;;1.98;;
78858;SDS011;68210;52.032;4.634;2023-08-20T06:15:25;7.18;;;1.92;;
78858;SDS011;68210;52.032;4.634;2023-08-20T06:17:25;5.60;;;2.17;;
78858;SDS011;68210;52.032;4.634;2023-08-20T06:19:26;4.82;;;1.73;;
78858;SDS011;68210;52.032;4.634;2023-08-20T06:21:27;5.72;;;2.00;;
78858;SDS011;68210;52.032;4.634;2023-08-20T06:23:27;8.23;;;1.88;;
78858;SDS011;68210;52.032;4.634;2023-08-20T06:25:27;8.27;;;2.35;;
78858;SDS011;68210;52.032;4.634;2023-08-20T06:27:28;7.85;;;1.80;;
78858;SDS011;68210;52.032;4.634;2023-08-20T06:29:28;7.78;;;2.13;;
78858;SDS011;68210;52.032;4.634;2023-08-20T06:31:29;7.28;;;2.20;;
78858;SDS011;68210;52.032;4.634;2023-08-20T06:33:29;5.28;;;1.50;;
78858;SDS011;68210;52.032;4.634;2023-08-20T06:35:29;5.93;;;1.90;;
78858;SDS011;68210;52.032;4.634;2023-08-20T06:37:30;8.20;;;2.25;;
78858;SDS011;68210;52.032;4.634;2023-08-20T06:39:30;7.55;;;2.13;;
78858;SDS011;68210;52.032;4.634;2023-08-20T06:41:30;10.30;;;2.10;;
78858;SDS011;68210;52.032;4.634;2023-08-20T06:43:31;8.32;;;2.03;;
78858;SDS011;68210;52.032;4.634;2023-08-20T06:45:31;10.48;;;2.17;;
78858;SDS011;68210;52.032;4.634;2023-08-20T06:47:32;9.82;;;2.28;;
78858;SDS011;68210;52.032;4.634;2023-08-20T06:49:32;8.52;;;2.92;;
78858;SDS011;68210;52.032;4.634;2023-08-20T06:51:33;7.10;;;1.80;;
78858;SDS011;68210;52.032;4.634;2023-08-20T06:53:33;8.45;;;2.10;;
78858;SDS011;68210;52.032;4.634;2023-08-20T06:55:34;9.25;;;2.10;;
78858;SDS011;68210;52.032;4.634;2023-08-20T06:57:36;7.90;;;1.77;;
78858;SDS011;68210;52.032;4.634;2023-08-20T06:59:36;7.35;;;2.45;;
78858;SDS011;68210;52.032;4.634;2023-08-20T07:01:37;7.50;;;2.30;;
78858;SDS011;68210;52.032;4.634;2023-08-20T07:03:37;7.40;;;2.17;;
78858;SDS011;68210;52.032;4.634;2023-08-20T07:05:41;8.70;;;1.95;;
78858;SDS011;68210;52.032;4.634;2023-08-20T07:07:41;6.90;;;1.70;;
78858;SDS011;68210;52.032;4.634;2023-08-20T07:09:42;8.20;;;2.28;;
78858;SDS011;68210;52.032;4.634;2023-08-20T07:11:42;6.53;;;1.75;;
78858;SDS011;68210;52.032;4.634;2023-08-20T07:13:43;8.65;;;2.40;;
78858;SDS011;68210;52.032;4.634;2023-08-20T07:15:43;7.28;;;1.60;;
78858;SDS011;68210;52.032;4.634;2023-08-20T07:17:43;6.63;;;1.92;;
78858;SDS011;68210;52.032;4.634;2023-08-20T07:19:44;10.25;;;2.00;;
78858;SDS011;68210;52.032;4.634;2023-08-20T07:21:44;8.73;;;2.22;;
78858;SDS011;68210;52.032;4.634;2023-08-20T07:23:44;8.45;;;2.38;;
78858;SDS011;68210;52.032;4.634;2023-08-20T07:25:45;8.90;;;1.90;;
78858;SDS011;68210;52.032;4.634;2023-08-20T07:27:46;6.30;;;1.98;;
78858;SDS011;68210;52.032;4.634;2023-08-20T07:29:47;10.55;;;1.88;;
78858;SDS011;68210;52.032;4.634;2023-08-20T07:31:47;10.18;;;1.90;;
78858;SDS011;68210;52.032;4.634;2023-08-20T07:33:48;7.45;;;1.67;;
78858;SDS011;68210;52.032;4.634;2023-08-20T07:35:49;6.38;;;1.90;;
78858;SDS011;68210;52.032;4.634;2023-08-20T07:37:49;8.70;;;2.10;;
78858;SDS011;68210;52.032;4.634;2023-08-20T07:39:50;9.68;;;2.10;;
78858;SDS011;68210;52.032;4.634;2023-08-20T07:41:50;6.18;;;2.13;;
78858;SDS011;68210;52.032;4.634;2023-08-20T07:43:51;9.55;;;1.80;;
78858;SDS011;68210;52.032;4.634;2023-08-20T07:45:51;6.82;;;1.70;;
78858;SDS011;68210;52.032;4.634;2023-08-20T07:47:51;6.20;;;1.70;;
78858;SDS011;68210;52.032;4.634;2023-08-20T07:49:52;8.35;;;1.92;;
78858;SDS011;68210;52.032;4.634;2023-08-20T07:51:52;6.28;;;1.80;;
78858;SDS011;68210;52.032;4.634;2023-08-20T07:53:54;8.02;;;1.92;;
78858;SDS011;68210;52.032;4.634;2023-08-20T07:55:55;5.70;;;1.85;;
78858;SDS011;68210;52.032;4.634;2023-08-20T07:57:55;8.18;;;1.80;;
78858;SDS011;68210;52.032;4.634;2023-08-20T07:59:56;7.40;;;1.85;;
78858;SDS011;68210;52.032;4.634;2023-08-20T08:01:56;6.65;;;1.85;;
78858;SDS011;68210;52.032;4.634;2023-08-20T08:03:56;11.98;;;2.38;;
78858;SDS011;68210;52.032;4.634;2023-08-20T08:05:57;7.65;;;1.73;;
78858;SDS011;68210;52.032;4.634;2023-08-20T08:07:57;7.25;;;1.77;;
78858;SDS011;68210;52.032;4.634;2023-08-20T08:09:57;9.10;;;1.92;;
78858;SDS011;68210;52.032;4.634;2023-08-20T08:11:58;9.85;;;2.00;;
78858;SDS011;68210;52.032;4.634;2023-08-20T08:13:59;5.75;;;1.65;;
78858;SDS011;68210;52.032;4.634;2023-08-20T08:15:59;8.02;;;2.08;;
78858;SDS011;68210;52.032;4.634;2023-08-20T08:18:00;7.22;;;1.80;;
78858;SDS011;68210;52.032;4.634;2023-08-20T08:20:00;7.95;;;2.00;;
78858;SDS011;68210;52.032;4.634;2023-08-20T08:22:00;5.47;;;1.58;;
78858;SDS011;68210;52.032;4.634;2023-08-20T08:24:01;9.50;;;1.80;;
78858;SDS011;68210;52.032;4.634;2023-08-20T08:26:02;4.90;;;1.20;;
78858;SDS011;68210;52.032;4.634;2023-08-20T08:28:03;7.25;;;2.55;;
78858;SDS011;68210;52.032;4.634;2023-08-20T08:30:04;6.03;;;2.38;;
78858;SDS011;68210;52.032;4.634;2023-08-20T08:32:05;6.40;;;1.80;;
78858;SDS011;68210;52.032;4.634;2023-08-20T08:34:05;7.07;;;1.90;;
78858;SDS011;68210;52.032;4.634;2023-08-20T08:36:06;6.40;;;1.77;;
78858;SDS011;68210;52.032;4.634;2023-08-20T08:38:06;7.07;;;1.80;;
78858;SDS011;68210;52.032;4.634;2023-08-20T08:40:07;6.88;;;1.58;;
78858;SDS011;68210;52.032;4.634;2023-08-20T08:42:08;4.90;;;2.00;;
78858;SDS011;68210;52.032;4.634;2023-08-20T08:44:11;5.55;;;1.63;;
78858;SDS011;68210;52.032;4.634;2023-08-20T08:46:13;5.15;;;1.52;;
78858;SDS011;68210;52.032;4.634;2023-08-20T08:48:14;7.38;;;2.03;;
78858;SDS011;68210;52.032;4.634;2023-08-20T08:50:15;7.45;;;1.65;;
78858;SDS011;68210;52.032;4.634;2023-08-20T08:52:15;8.35;;;1.80;;
78858;SDS011;68210;52.032;4.634;2023-08-20T08:54:16;9.05;;;1.75;;
78858;SDS011;68210;52.032;4.634;2023-08-20T08:56:16;7.05;;;1.60;;
78858;SDS011;68210;52.032;4.634;2023-08-20T08:58:17;5.50;;;1.67;;
78858;SDS011;68210;52.032;4.634;2023-08-20T09:00:17;6.38;;;1.85;;
78858;SDS011;68210;52.032;4.634;2023-08-20T09:02:18;5.35;;;1.50;;
78858;SDS011;68210;52.032;4.634;2023-08-20T09:04:19;6.47;;;2.10;;
78858;SDS011;68210;52.032;4.634;2023-08-20T09:06:19;5.80;;;1.50;;
78858;SDS011;68210;52.032;4.634;2023-08-20T09:08:23;5.13;;;1.48;;
78858;SDS011;68210;52.032;4.634;2023-08-20T09:10:27;8.00;;;2.10;;
78858;SDS011;68210;52.032;4.634;2023-08-20T09:12:27;6.13;;;1.45;;
78858;SDS011;68210;52.032;4.634;2023-08-20T09:14:28;3.60;;;1.15;;
78858;SDS011;68210;52.032;4.634;2023-08-20T09:16:30;3.70;;;1.52;;
78858;SDS011;68210;52.032;4.634;2023-08-20T09:18:31;5.40;;;1.80;;
78858;SDS011;68210;52.032;4.634;2023-08-20T09:20:35;7.55;;;1.55;;
78858;SDS011;68210;52.032;4.634;2023-08-20T09:22:37;5.43;;;1.40;;
78858;SDS011;68210;52.032;4.634;2023-08-20T09:26:47;6.65;;;1.48;;
78858;SDS011;68210;52.032;4.634;2023-08-20T09:28:47;3.63;;;1.02;;
78858;SDS011;68210;52.032;4.634;2023-08-20T09:31:00;3.70;;;1.17;;
78858;SDS011;68210;52.032;4.634;2023-08-20T09:33:04;3.50;;;1.20;;
78858;SDS011;68210;52.032;4.634;2023-08-20T09:35:17;3.50;;;1.15;;
78858;SDS011;68210;52.032;4.634;2023-08-20T09:37:19;5.68;;;1.70;;
78858;SDS011;68210;52.032;4.634;2023-08-20T09:39:21;5.13;;;1.30;;
78858;SDS011;68210;52.032;4.634;2023-08-20T09:41:22;4.75;;;1.20;;
78858;SDS011;68210;52.032;4.634;2023-08-20T09:43:23;5.47;;;1.58;;
78858;SDS011;68210;52.032;4.634;2023-08-20T09:45:28;6.07;;;1.45;;
78858;SDS011;68210;52.032;4.634;2023-08-20T09:47:29;5.13;;;1.35;;
78858;SDS011;68210;52.032;4.634;2023-08-20T09:49:52;5.07;;;1.10;;
78858;SDS011;68210;52.032;4.634;2023-08-20T09:51:54;5.43;;;1.30;;
78858;SDS011;68210;52.032;4.634;2023-08-20T09:54:07;6.65;;;1.52;;
78858;SDS011;68210;52.032;4.634;2023-08-20T09:58:30;5.88;;;1.60;;
78858;SDS011;68210;52.032;4.634;2023-08-20T10:00:32;7.55;;;1.58;;
78858;SDS011;68210;52.032;4.634;2023-08-20T10:02:33;5.15;;;1.63;;
78858;SDS011;68210;52.032;4.634;2023-08-20T10:04:34;4.15;;;1.02;;
78858;SDS011;68210;52.032;4.634;2023-08-20T10:06:34;8.15;;;1.85;;
78858;SDS011;68210;52.032;4.634;2023-08-20T10:08:37;4.20;;;1.08;;
78858;SDS011;68210;52.032;4.634;2023-08-20T10:10:38;5.18;;;1.60;;
78858;SDS011;68210;52.032;4.634;2023-08-20T10:12:38;5.03;;;1.40;;
78858;SDS011;68210;52.032;4.634;2023-08-20T10:14:40;3.65;;;1.02;;
78858;SDS011;68210;52.032;4.634;2023-08-20T10:16:41;7.60;;;1.52;;
78858;SDS011;68210;52.032;4.634;2023-08-20T10:18:42;2.83;;;1.33;;
78858;SDS011;68210;52.032;4.634;2023-08-20T10:20:42;6.30;;;1.77;;
78858;SDS011;68210;52.032;4.634;2023-08-20T10:22:44;6.13;;;1.30;;
78858;SDS011;68210;52.032;4.634;2023-08-20T10:24:48;4.95;;;1.90;;
78858;SDS011;68210;52.032;4.634;2023-08-20T10:27:06;4.68;;;1.25;;
78858;SDS011;68210;52.032;4.634;2023-08-20T10:33:49;3.83;;;1.10;;
78858;SDS011;68210;52.032;4.634;2023-08-20T10:35:53;6.38;;;1.73;;
78858;SDS011;68210;52.032;4.634;2023-08-20T10:40:04;6.30;;;1.63;;
78858;SDS011;68210;52.032;4.634;2023-08-20T10:42:08;5.22;;;1.70;;
78858;SDS011;68210;52.032;4.634;2023-08-20T10:44:11;3.55;;;0.98;;
78858;SDS011;68210;52.032;4.634;2023-08-20T10:46:15;4.68;;;1.80;;
78858;SDS011;68210;52.032;4.634;2023-08-20T10:48:16;5.57;;;1.33;;
78858;SDS011;68210;52.032;4.634;2023-08-20T10:50:17;3.00;;;1.02;;
78858;SDS011;68210;52.032;4.634;2023-08-20T10:52:22;3.58;;;1.00;;
78858;SDS011;68210;52.032;4.634;2023-08-20T10:54:23;3.35;;;1.02;;
78858;SDS011;68210;52.032;4.634;2023-08-20T10:56:24;3.53;;;1.05;;
78858;SDS011;68210;52.032;4.634;2023-08-20T10:58:46;4.95;;;1.17;;
78858;SDS011;68210;52.032;4.634;2023-08-20T11:01:11;3.03;;;0.93;;
78858;SDS011;68210;52.032;4.634;2023-08-20T11:03:21;4.32;;;1.45;;
78858;SDS011;68210;52.032;4.634;2023-08-20T11:05:21;2.08;;;0.90;;
78858;SDS011;68210;52.032;4.634;2023-08-20T11:07:23;6.20;;;1.33;;
78858;SDS011;68210;52.032;4.634;2023-08-20T11:09:26;4.80;;;1.85;;
78858;SDS011;68210;52.032;4.634;2023-08-20T11:11:27;4.80;;;1.20;;
78858;SDS011;68210;52.032;4.634;2023-08-20T11:13:28;6.45;;;1.50;;
78858;SDS011;68210;52.032;4.634;2023-08-20T11:15:28;2.67;;;0.80;;
78858;SDS011;68210;52.032;4.634;2023-08-20T11:17:28;5.28;;;1.00;;
78858;SDS011;68210;52.032;4.634;2023-08-20T11:19:29;5.10;;;0.82;;
78858;SDS011;68210;52.032;4.634;2023-08-20T11:21:30;3.10;;;0.73;;
78858;SDS011;68210;52.032;4.634;2023-08-20T11:23:30;5.07;;;0.90;;
78858;SDS011;68210;52.032;4.634;2023-08-20T11:25:31;3.85;;;1.30;;
78858;SDS011;68210;52.032;4.634;2023-08-20T11:27:31;3.42;;;0.85;;
78858;SDS011;68210;52.032;4.634;2023-08-20T11:29:32;4.38;;;1.00;;
78858;SDS011;68210;52.032;4.634;2023-08-20T11:31:32;1.88;;;0.70;;
78858;SDS011;68210;52.032;4.634;2023-08-20T11:33:35;3.78;;;1.10;;
78858;SDS011;68210;52.032;4.634;2023-08-20T11:35:35;5.10;;;1.00;;
78858;SDS011;68210;52.032;4.634;2023-08-20T11:37:36;4.85;;;1.00;;
78858;SDS011;68210;52.032;4.634;2023-08-20T11:39:36;3.33;;;0.88;;
78858;SDS011;68210;52.032;4.634;2023-08-20T11:41:37;4.43;;;1.10;;
78858;SDS011;68210;52.032;4.634;2023-08-20T11:43:41;4.20;;;1.10;;
78858;SDS011;68210;52.032;4.634;2023-08-20T11:45:44;1.90;;;0.77;;
78858;SDS011;68210;52.032;4.634;2023-08-20T11:47:46;3.10;;;1.00;;
78858;SDS011;68210;52.032;4.634;2023-08-20T11:49:46;6.43;;;1.20;;
78858;SDS011;68210;52.032;4.634;2023-08-20T11:51:47;3.10;;;0.80;;
78858;SDS011;68210;52.032;4.634;2023-08-20T11:55:49;5.43;;;1.10;;
78858;SDS011;68210;52.032;4.634;2023-08-20T11:57:51;4.45;;;0.68;;
78858;SDS011;68210;52.032;4.634;2023-08-20T11:59:52;3.20;;;0.88;;
78858;SDS011;68210;52.032;4.634;2023-08-20T12:01:56;2.67;;;1.02;;
78858;SDS011;68210;52.032;4.634;2023-08-20T12:04:03;4.55;;;0.85;;
78858;SDS011;68210;52.032;4.634;2023-08-20T12:06:20;5.00;;;1.17;;
78858;SDS011;68210;52.032;4.634;2023-08-20T12:08:23;2.33;;;0.70;;
78858;SDS011;68210;52.032;4.634;2023-08-20T12:10:23;5.22;;;1.00;;
78858;SDS011;68210;52.032;4.634;2023-08-20T12:12:24;4.50;;;1.13;;
78858;SDS011;68210;52.032;4.634;2023-08-20T12:14:25;3.92;;;1.10;;
78858;SDS011;68210;52.032;4.634;2023-08-20T12:16:27;3.30;;;1.00;;
78858;SDS011;68210;52.032;4.634;2023-08-20T12:18:27;3.03;;;0.75;;
78858;SDS011;68210;52.032;4.634;2023-08-20T12:20:31;2.45;;;1.02;;
78858;SDS011;68210;52.032;4.634;2023-08-20T12:22:34;3.13;;;0.70;;
78858;SDS011;68210;52.032;4.634;2023-08-20T12:24:34;3.53;;;0.90;;
78858;SDS011;68210;52.032;4.634;2023-08-20T12:26:35;5.25;;;0.98;;
78858;SDS011;68210;52.032;4.634;2023-08-20T12:28:36;3.63;;;0.85;;
78858;SDS011;68210;52.032;4.634;2023-08-20T12:30:37;4.30;;;0.98;;
78858;SDS011;68210;52.032;4.634;2023-08-20T12:32:38;2.47;;;0.70;;
78858;SDS011;68210;52.032;4.634;2023-08-20T12:34:39;2.28;;;1.05;;